createdAt,value
2024-03-28T00:00:00.161Z, 7.2
2024-03-28T00:02:00.107Z, 7.1
2024-03-28T00:04:00.115Z, 7
2024-03-28T00:06:00.120Z, 7.2
2024-03-28T00:08:00.129Z, 7.2
2024-03-28T00:10:00.123Z, 7.4
2024-03-28T00:12:00.367Z, 7.1
2024-03-28T00:14:00.101Z, 7.2
2024-03-28T00:16:00.121Z, 7.3
2024-03-28T00:18:00.535Z, 6.9
2024-03-28T00:20:00.132Z, 6.8
2024-03-28T00:22:00.140Z, 6.7
2024-03-28T00:24:00.126Z, 6.7
2024-03-28T00:26:00.147Z, 6.7
2024-03-28T00:28:00.097Z, 6.9
2024-03-28T00:30:00.174Z, 6.9
2024-03-28T00:32:00.132Z, 6.8
2024-03-28T00:34:00.101Z, 6.8
2024-03-28T00:36:00.128Z, 6.8
2024-03-28T00:38:00.112Z, 6.7
2024-03-28T00:40:00.214Z, 6.6
2024-03-28T00:42:00.139Z, 6.6
2024-03-28T00:44:00.099Z, 6.4
2024-03-28T00:46:00.125Z, 6.5
2024-03-28T00:48:00.178Z, 6.6
2024-03-28T00:50:00.164Z, 6.6
2024-03-28T00:52:00.111Z, 6.7
2024-03-28T00:54:00.162Z, 6.7
2024-03-28T00:56:00.480Z, 6.6
2024-03-28T00:58:00.108Z, 6.6
2024-03-28T01:00:00.191Z, 6.5
2024-03-28T01:02:00.134Z, 6.7
2024-03-28T01:04:00.107Z, 6.8
2024-03-28T01:06:00.118Z, 6.8
2024-03-28T01:08:00.117Z, 6.9
2024-03-28T01:10:00.217Z, 7.1
2024-03-28T01:12:00.116Z, 7
2024-03-28T01:14:00.106Z, 6.8
2024-03-28T01:16:00.101Z, 6.8
2024-03-28T01:18:00.149Z, 6.9
2024-03-28T01:20:00.167Z, 7
2024-03-28T01:22:00.099Z, 6.7
2024-03-28T01:24:00.158Z, 6.8
2024-03-28T01:26:00.131Z, 6.7
2024-03-28T01:28:00.148Z, 6.7
2024-03-28T01:30:00.220Z, 6.8
2024-03-28T01:32:00.113Z, 6.8
2024-03-28T01:34:00.102Z, 6.7
2024-03-28T01:36:00.120Z, 6.6
2024-03-28T01:38:00.102Z, 6.5
2024-03-28T01:40:00.224Z, 6.3
2024-03-28T01:42:00.126Z, 6.4
2024-03-28T01:44:00.139Z, 6.6
2024-03-28T01:46:02.459Z, 6.5
2024-03-28T01:50:00.168Z, 6.5
2024-03-28T01:52:00.118Z, 6.7
2024-03-28T01:54:00.158Z, 6.7
2024-03-28T01:56:00.126Z, 6.5
2024-03-28T01:58:00.115Z, 6.4
2024-03-28T02:00:00.211Z, 6.4
2024-03-28T02:02:00.139Z, 6.5
2024-03-28T02:04:00.100Z, 6.6
2024-03-28T02:06:00.118Z, 6.5
2024-03-28T02:08:00.106Z, 6.6
2024-03-28T02:10:00.136Z, 6.5
2024-03-28T02:12:00.174Z, 6.5
2024-03-28T02:14:00.145Z, 6.5
2024-03-28T02:16:00.100Z, 6.5
2024-03-28T02:18:00.164Z, 6.5
2024-03-28T02:20:00.138Z, 6.5
2024-03-28T02:22:00.111Z, 6.6
2024-03-28T02:24:00.176Z, 6.5
2024-03-28T02:26:00.095Z, 6.3
2024-03-28T02:28:00.126Z, 6.3
2024-03-28T02:30:00.173Z, 6.1
2024-03-28T02:32:00.116Z, 6
2024-03-28T02:34:00.109Z, 6.1
2024-03-28T02:36:00.128Z, 6.2
2024-03-28T02:38:00.110Z, 6.3
2024-03-28T02:40:00.152Z, 6.2
2024-03-28T02:42:00.127Z, 6.3
2024-03-28T02:44:00.144Z, 6.4
2024-03-28T02:46:00.109Z, 6.5
2024-03-28T02:48:00.157Z, 6.5
2024-03-28T02:50:00.150Z, 6.6
2024-03-28T02:52:00.118Z, 6.5
2024-03-28T02:54:00.167Z, 6.3
2024-03-28T02:56:00.553Z, 6.3
2024-03-28T02:58:00.131Z, 6
2024-03-28T03:00:00.159Z, 5.7
2024-03-28T03:02:00.123Z, 5.7
2024-03-28T03:04:00.097Z, 5.6
2024-03-28T03:06:00.125Z, 5.5
2024-03-28T03:08:00.121Z, 5.7
2024-03-28T03:10:00.161Z, 6
2024-03-28T03:12:00.191Z, 6.2
2024-03-28T03:14:00.126Z, 6.4
2024-03-28T03:16:00.107Z, 6.4
2024-03-28T03:18:00.176Z, 6.4
2024-03-28T03:20:00.193Z, 6.5
2024-03-28T03:22:00.097Z, 6.6
2024-03-28T03:24:00.175Z, 6.8
2024-03-28T03:26:00.103Z, 6.7
2024-03-28T03:28:00.104Z, 6.7
2024-03-28T03:30:00.158Z, 6.9
2024-03-28T03:32:00.130Z, 6.7
2024-03-28T03:34:00.650Z, 6.7
2024-03-28T03:36:00.116Z, 6.5
2024-03-28T03:38:00.124Z, 6.4
2024-03-28T03:40:00.201Z, 6.5
2024-03-28T03:42:00.125Z, 6.3
2024-03-28T03:44:00.121Z, 6.1
2024-03-28T03:46:00.108Z, 6.2
2024-03-28T03:48:00.126Z, 6.1
2024-03-28T03:50:00.165Z, 6.2
2024-03-28T03:52:00.098Z, 6.2
2024-03-28T03:54:00.131Z, 6.3
2024-03-28T03:56:00.098Z, 6.1
2024-03-28T03:58:00.103Z, 6.2
2024-03-28T04:00:00.239Z, 6.4
2024-03-28T04:02:00.109Z, 6.3
2024-03-28T04:04:00.137Z, 6.1
2024-03-28T04:06:00.199Z, 6.3
2024-03-28T04:08:00.103Z, 6.3
2024-03-28T04:10:00.130Z, 6.3
2024-03-28T04:12:00.146Z, 6.4
2024-03-28T04:14:00.105Z, 6.2
2024-03-28T04:16:00.094Z, 6.4
2024-03-28T04:18:00.128Z, 6.2
2024-03-28T04:20:00.147Z, 6.4
2024-03-28T04:22:00.103Z, 6.1
2024-03-28T04:24:00.130Z, 5.9
2024-03-28T04:26:00.102Z, 6
2024-03-28T04:28:00.098Z, 5.9
2024-03-28T04:30:02.108Z, 5.9
2024-03-28T04:32:00.124Z, 5.8
2024-03-28T04:34:00.118Z, 5.8
2024-03-28T04:36:00.124Z, 5.8
2024-03-28T04:38:00.102Z, 5.7
2024-03-28T04:40:00.152Z, 5.7
2024-03-28T04:42:00.119Z, 5.8
2024-03-28T04:44:00.100Z, 5.8
2024-03-28T04:46:00.110Z, 5.7
2024-03-28T04:48:00.121Z, 5.6
2024-03-28T04:50:00.216Z, 5.6
2024-03-28T04:52:00.136Z, 5.5
2024-03-28T04:54:00.121Z, 5.5
2024-03-28T04:56:00.107Z, 5.5
2024-03-28T04:58:00.118Z, 5.5
2024-03-28T05:00:00.194Z, 5.4
2024-03-28T05:02:00.101Z, 5.4
2024-03-28T05:04:00.139Z, 5.4
2024-03-28T05:06:00.118Z, 5.5
2024-03-28T05:08:00.115Z, 5.6
2024-03-28T05:10:00.152Z, 5.7
2024-03-28T05:12:00.126Z, 5.6
2024-03-28T05:14:00.103Z, 5.6
2024-03-28T05:16:00.128Z, 5.7
2024-03-28T05:18:00.165Z, 5.6
2024-03-28T05:20:00.145Z, 5.6
2024-03-28T05:22:00.106Z, 5.6
2024-03-28T05:24:00.135Z, 5.6
2024-03-28T05:26:00.146Z, 5.6
2024-03-28T05:28:00.099Z, 5.6
2024-03-28T05:30:00.189Z, 5.8
2024-03-28T05:32:00.096Z, 5.8
2024-03-28T05:34:00.371Z, 5.9
2024-03-28T05:36:00.169Z, 5.9
2024-03-28T05:38:00.111Z, 6.2
2024-03-28T05:40:00.147Z, 6.2
2024-03-28T05:42:00.126Z, 6.4
2024-03-28T05:44:00.092Z, 6.7
2024-03-28T05:46:00.134Z, 6.3
2024-03-28T05:48:00.138Z, 6.3
2024-03-28T05:50:00.186Z, 6.4
2024-03-28T05:52:00.098Z, 6.5
2024-03-28T05:54:00.136Z, 6.6
2024-03-28T05:56:00.134Z, 6.8
2024-03-28T05:58:00.126Z, 7
2024-03-28T06:00:00.156Z, 7.1
2024-03-28T06:02:00.117Z, 7
2024-03-28T06:04:00.109Z, 7.3
2024-03-28T06:06:00.124Z, 7.7
2024-03-28T06:08:00.130Z, 7.7
2024-03-28T06:10:00.164Z, 8.1
2024-03-28T06:12:00.582Z, 8.3
2024-03-28T06:14:00.124Z, 8.6
2024-03-28T06:16:00.104Z, 9
2024-03-28T06:18:00.172Z, 8.7
2024-03-28T06:20:00.151Z, 9
2024-03-28T06:22:00.360Z, 8.4
2024-03-28T06:24:00.374Z, 8.7
2024-03-28T06:26:00.138Z, 8.7
2024-03-28T06:28:00.105Z, 8.6
2024-03-28T06:30:00.191Z, 8.2
2024-03-28T06:32:00.100Z, 8.1
2024-03-28T06:34:00.099Z, 7.7
2024-03-28T06:36:00.126Z, 7.3
2024-03-28T06:38:00.100Z, 7.5
2024-03-28T06:40:00.224Z, 7.2
2024-03-28T06:42:00.127Z, 7
2024-03-28T06:44:00.113Z, 6.8
2024-03-28T06:46:00.152Z, 7
2024-03-28T06:48:00.118Z, 7.1
2024-03-28T06:50:00.155Z, 6.9
2024-03-28T06:52:00.102Z, 6.8
2024-03-28T06:54:00.183Z, 6.8
2024-03-28T06:56:00.134Z, 6.8
2024-03-28T06:58:00.138Z, 6.6
2024-03-28T07:00:00.174Z, 6.6
2024-03-28T07:02:00.092Z, 6.6
2024-03-28T07:04:00.109Z, 6.7
2024-03-28T07:06:02.539Z, 6.8
2024-03-28T07:08:00.118Z, 6.7
2024-03-28T07:10:00.144Z, 6.7
2024-03-28T07:12:00.148Z, 6.3
2024-03-28T07:14:00.166Z, 6.5
2024-03-28T07:16:00.102Z, 6.6
2024-03-28T07:18:00.115Z, 6.8
2024-03-28T07:20:00.199Z, 6.9
2024-03-28T07:22:00.091Z, 7
2024-03-28T07:24:00.116Z, 7
2024-03-28T07:26:00.111Z, 6.9
2024-03-28T07:28:00.105Z, 6.7
2024-03-28T07:30:00.155Z, 6.4
2024-03-28T07:32:00.101Z, 6.7
2024-03-28T07:34:00.112Z, 6.8
2024-03-28T07:36:00.184Z, 6.7
2024-03-28T07:38:00.094Z, 6.6
2024-03-28T07:40:00.208Z, 6.5
2024-03-28T07:42:00.126Z, 6.5
2024-03-28T07:44:00.112Z, 6.4
2024-03-28T07:46:00.101Z, 6.4
2024-03-28T07:48:00.120Z, 6.3
2024-03-28T07:50:00.156Z, 6.4
2024-03-28T07:52:00.150Z, 6.4
2024-03-28T07:54:00.185Z, 6.4
2024-03-28T07:56:00.587Z, 6.5
2024-03-28T07:58:00.128Z, 6.6
2024-03-28T08:00:00.250Z, 6.6
2024-03-28T08:02:00.147Z, 6.6
2024-03-28T08:04:00.154Z, 6.3
2024-03-28T08:06:00.156Z, 6.4
2024-03-28T08:08:00.104Z, 6.6
2024-03-28T08:10:00.145Z, 6.4
2024-03-28T08:12:00.182Z, 6.4
2024-03-28T08:14:00.129Z, 6.3
2024-03-28T08:16:00.095Z, 6.3
2024-03-28T08:18:00.137Z, 6.3
2024-03-28T08:20:00.169Z, 6.2
2024-03-28T08:22:00.093Z, 6.3
2024-03-28T08:24:00.125Z, 6.2
2024-03-28T08:26:00.108Z, 6.1
2024-03-28T08:28:00.117Z, 6.3
2024-03-28T08:30:00.315Z, 6.3
2024-03-28T08:32:00.299Z, 6.3
2024-03-28T08:34:00.436Z, 6.4
2024-03-28T08:36:00.132Z, 6.3
2024-03-28T08:38:00.132Z, 6.9
2024-03-28T08:40:00.151Z, 7.4
2024-03-28T08:42:00.143Z, 7.6
2024-03-28T08:44:00.128Z, 7.4
2024-03-28T08:46:00.122Z, 7.3
2024-03-28T08:48:00.137Z, 7.1
2024-03-28T08:50:00.163Z, 7.3
2024-03-28T08:52:00.105Z, 7.6
2024-03-28T08:54:00.304Z, 7.2
2024-03-28T08:56:00.106Z, 7.2
2024-03-28T08:58:00.107Z, 7.2
2024-03-28T09:00:00.150Z, 7.3
2024-03-28T09:02:00.100Z, 7.4
2024-03-28T09:04:00.107Z, 7.2
2024-03-28T09:06:00.116Z, 7.6
2024-03-28T09:08:00.160Z, 7.5
2024-03-28T09:10:00.192Z, 7.3
2024-03-28T09:12:00.140Z, 7.3
2024-03-28T09:14:00.137Z, 7.5
2024-03-28T09:16:00.626Z, 7.3
2024-03-28T09:18:00.154Z, 7.3
2024-03-28T09:20:00.167Z, 7.4
2024-03-28T09:22:00.118Z, 7.2
2024-03-28T09:24:00.131Z, 7.1
2024-03-28T09:26:00.110Z, 7.1
2024-03-28T09:28:00.106Z, 7.2
2024-03-28T09:30:00.186Z, 7.3
2024-03-28T09:32:00.123Z, 7.2
2024-03-28T09:34:00.123Z, 7.2
2024-03-28T09:36:00.153Z, 7.1
2024-03-28T09:38:00.111Z, 7.3
2024-03-28T09:40:03.498Z, 7.4
2024-03-28T09:42:00.122Z, 7.4
2024-03-28T09:44:00.103Z, 7.3
2024-03-28T09:46:00.096Z, 7.5
2024-03-28T09:48:00.435Z, 7.1
2024-03-28T09:50:00.210Z, 7.1
2024-03-28T09:52:00.104Z, 7
2024-03-28T09:54:00.123Z, 6.9
2024-03-28T09:56:00.139Z, 6.9
2024-03-28T09:58:00.137Z, 6.7
2024-03-28T10:00:00.207Z, 6.8
2024-03-28T10:02:00.122Z, 6.9
2024-03-28T10:04:00.217Z, 7
2024-03-28T10:06:00.140Z, 7.2
2024-03-28T10:08:00.125Z, 7.5
2024-03-28T10:10:00.128Z, 7.6
2024-03-28T10:12:00.119Z, 7.5
2024-03-28T10:14:00.103Z, 7.6
2024-03-28T10:16:00.098Z, 7.9
2024-03-28T10:18:00.123Z, 8.3
2024-03-28T10:20:00.182Z, 8.7
2024-03-28T10:22:00.107Z, 9
2024-03-28T10:24:00.122Z, 8.7
2024-03-28T10:26:00.105Z, 8.4
2024-03-28T10:28:00.103Z, 8.6
2024-03-28T10:30:00.214Z, 9
2024-03-28T10:32:00.107Z, 8.9
2024-03-28T10:34:00.115Z, 9.1
2024-03-28T10:36:00.141Z, 8.9
2024-03-28T10:40:00.163Z, 9.1
2024-03-28T10:42:00.127Z, 9.4
2024-03-28T10:44:00.107Z, 9
2024-03-28T10:46:00.099Z, 9.4
2024-03-28T10:48:00.131Z, 9.9
2024-03-28T10:50:00.190Z, 9.6
2024-03-28T10:52:00.093Z, 9.5
2024-03-28T10:54:03.655Z, 9.5
2024-03-28T10:56:00.137Z, 9.4
2024-03-28T10:58:00.123Z, 9.3
2024-03-28T11:00:00.182Z, 9.4
2024-03-28T11:02:00.121Z, 9.5
2024-03-28T11:04:00.101Z, 9.5
2024-03-28T11:06:00.152Z, 9.4
2024-03-28T11:08:00.117Z, 9.3
2024-03-28T11:10:00.184Z, 9.1
2024-03-28T11:12:00.118Z, 9.1
2024-03-28T11:14:00.108Z, 9.2
2024-03-28T11:16:00.120Z, 9.4
2024-03-28T11:18:00.112Z, 9.2
2024-03-28T11:20:00.187Z, 9.3
2024-03-28T11:22:00.175Z, 9.4
2024-03-28T11:24:00.151Z, 9.5
2024-03-28T11:26:00.135Z, 9.6
2024-03-28T11:28:00.152Z, 9.5
2024-03-28T11:30:00.188Z, 9.4
2024-03-28T11:32:00.100Z, 9.4
2024-03-28T11:34:00.106Z, 9.5
2024-03-28T11:36:00.121Z, 9.2
2024-03-28T11:38:00.102Z, 9.4
2024-03-28T11:40:00.159Z, 9.4
2024-03-28T11:42:00.126Z, 9.6
2024-03-28T11:44:00.149Z, 9.5
2024-03-28T11:46:00.134Z, 9.6
2024-03-28T11:48:00.157Z, 9.9
2024-03-28T11:50:00.132Z, 9.9
2024-03-28T11:52:00.151Z, 9.6
2024-03-28T11:54:04.447Z, 9.9
2024-03-28T11:56:00.102Z, 9.6
2024-03-28T11:58:00.113Z, 9.6
2024-03-28T12:00:00.224Z, 9.4
2024-03-28T12:02:00.109Z, 9.4
2024-03-28T12:04:00.128Z, 9.4
2024-03-28T12:06:00.137Z, 9.4
2024-03-28T12:08:00.134Z, 9.7
2024-03-28T12:10:00.160Z, 10
2024-03-28T12:12:00.103Z, 10
2024-03-28T12:14:00.126Z, 9.7
2024-03-28T12:16:00.106Z, 9.7
2024-03-28T12:18:00.148Z, 9.7
2024-03-28T12:20:00.183Z, 9.6
2024-03-28T12:22:00.108Z, 9.7
2024-03-28T12:24:00.137Z, 8.9
2024-03-28T12:26:00.107Z, 7.5
2024-03-28T12:28:00.097Z, 6.6
2024-03-28T12:30:00.209Z, 7.2
2024-03-28T12:32:00.112Z, 7.5
2024-03-28T12:34:00.096Z, 7.5
2024-03-28T12:36:00.127Z, 7
2024-03-28T12:38:00.115Z, 6.5
2024-03-28T12:40:00.145Z, 6.4
2024-03-28T12:42:00.189Z, 6.2
2024-03-28T12:44:00.111Z, 5.5
2024-03-28T12:46:00.135Z, 5.4
2024-03-28T12:48:00.122Z, 5.3
2024-03-28T12:50:00.201Z, 5.4
2024-03-28T12:52:00.123Z, 5.6
2024-03-28T12:54:00.128Z, 5.9
2024-03-28T12:56:00.351Z, 6.5
2024-03-28T12:58:00.108Z, 7.1
2024-03-28T13:00:00.191Z, 7.2
2024-03-28T13:02:00.133Z, 7.3
2024-03-28T13:04:00.107Z, 7.2
2024-03-28T13:06:00.120Z, 7.4
2024-03-28T13:08:00.104Z, 7.7
2024-03-28T13:10:00.193Z, 7.8
2024-03-28T13:12:00.184Z, 7.9
2024-03-28T13:14:00.152Z, 8.2
2024-03-28T13:16:00.150Z, 8.3
2024-03-28T13:18:00.123Z, 8.3
2024-03-28T13:20:00.144Z, 8.9
2024-03-28T13:22:00.142Z, 9
2024-03-28T13:24:00.140Z, 9
2024-03-28T13:26:10.642Z, 8.8
2024-03-28T13:28:00.110Z, 9
2024-03-28T13:30:00.156Z, 9
2024-03-28T13:32:00.100Z, 9.2
2024-03-28T13:34:00.125Z, 9.5
2024-03-28T13:36:00.129Z, 9.1
2024-03-28T13:38:00.114Z, 9.5
2024-03-28T13:40:00.151Z, 9.4
2024-03-28T13:42:00.172Z, 8.9
2024-03-28T13:44:00.110Z, 8.8
2024-03-28T13:46:00.106Z, 9.1
2024-03-28T13:48:00.143Z, 9.1
2024-03-28T13:50:00.171Z, 9.2
2024-03-28T13:52:00.118Z, 9.2
2024-03-28T13:54:00.184Z, 9.1
2024-03-28T13:56:00.140Z, 9.2
2024-03-28T13:58:00.164Z, 9.5
2024-03-28T14:00:00.196Z, 9.6
2024-03-28T14:02:00.111Z, 9.8
2024-03-28T14:04:00.107Z, 10.3
2024-03-28T14:06:00.149Z, 10.2
2024-03-28T14:08:00.144Z, 10.2
2024-03-28T14:10:00.157Z, 10
2024-03-28T14:12:00.127Z, 10
2024-03-28T14:14:00.098Z, 10
2024-03-28T14:16:00.124Z, 10
2024-03-28T14:18:00.137Z, 10
2024-03-28T14:20:00.125Z, 9.8
2024-03-28T14:22:00.112Z, 9.7
2024-03-28T14:24:00.201Z, 9.5
2024-03-28T14:26:00.120Z, 9.4
2024-03-28T14:28:00.710Z, 9.5
2024-03-28T14:30:00.220Z, 9.5
2024-03-28T14:32:00.135Z, 9.6
2024-03-28T14:34:00.110Z, 9.7
2024-03-28T14:36:00.219Z, 9.8
2024-03-28T14:38:00.111Z, 9.9
2024-03-28T14:40:00.124Z, 9.8
2024-03-28T14:42:00.170Z, 9.8
2024-03-28T14:44:00.101Z, 9.7
2024-03-28T14:46:00.115Z, 9.7
2024-03-28T14:48:00.141Z, 9.7
2024-03-28T14:50:00.164Z, 9.6
2024-03-28T14:52:00.163Z, 9.7
2024-03-28T14:54:00.128Z, 9.7
2024-03-28T14:56:00.104Z, 9.7
2024-03-28T14:58:00.153Z, 9.8
2024-03-28T15:00:00.185Z, 9.8
2024-03-28T15:02:00.115Z, 9.9
2024-03-28T15:04:00.109Z, 9.8
2024-03-28T15:06:00.132Z, 9.8
2024-03-28T15:08:00.120Z, 9.8
2024-03-28T15:10:00.152Z, 9.8
2024-03-28T15:12:00.151Z, 9.8
2024-03-28T15:14:00.156Z, 9.9
2024-03-28T15:16:00.105Z, 9.9
2024-03-28T15:18:00.173Z, 9.8
2024-03-28T15:20:00.181Z, 9.7
2024-03-28T15:22:00.120Z, 9.8
2024-03-28T15:24:00.119Z, 9.8
2024-03-28T15:26:00.122Z, 9.8
2024-03-28T15:28:00.100Z, 9.8
2024-03-28T15:30:00.219Z, 9.3
2024-03-28T15:32:08.543Z, 6.8
2024-03-28T15:34:00.132Z, 6.3
2024-03-28T15:36:00.116Z, 6.2
2024-03-28T15:38:00.104Z, 6.2
2024-03-28T15:40:00.235Z, 6.4
2024-03-28T15:42:00.118Z, 6.7
2024-03-28T15:44:00.128Z, 6.7
2024-03-28T15:46:00.131Z, 6.8
2024-03-28T15:48:00.123Z, 6.9
2024-03-28T15:50:00.217Z, 6.9
2024-03-28T15:52:00.119Z, 6.9
2024-03-28T15:54:00.132Z, 7
2024-03-28T15:56:00.120Z, 7.1
2024-03-28T15:58:00.113Z, 7.1
2024-03-28T16:00:00.191Z, 7.1
2024-03-28T16:02:00.097Z, 7.1
2024-03-28T16:04:00.134Z, 7.1
2024-03-28T16:06:00.143Z, 7.2
2024-03-28T16:08:00.097Z, 7.2
2024-03-28T16:10:00.144Z, 7.3
2024-03-28T16:12:00.132Z, 7.3
2024-03-28T16:14:00.317Z, 7.4
2024-03-28T16:16:00.125Z, 7.5
2024-03-28T16:18:00.162Z, 7.5
2024-03-28T16:20:00.151Z, 7.6
2024-03-28T16:22:00.120Z, 7.8
2024-03-28T16:24:00.124Z, 8.1
2024-03-28T16:26:00.121Z, 8.3
2024-03-28T16:28:00.121Z, 8.4
2024-03-28T16:30:00.230Z, 8.5
2024-03-28T16:32:00.128Z, 8.6
2024-03-28T16:34:00.128Z, 8.6
2024-03-28T16:36:00.168Z, 8.7
2024-03-28T16:38:00.306Z, 8.8
2024-03-28T16:40:00.226Z, 8.9
2024-03-28T16:42:00.168Z, 9
2024-03-28T16:44:00.128Z, 9.1
2024-03-28T16:46:00.120Z, 9.1
2024-03-28T16:48:00.125Z, 9.2
2024-03-28T16:50:00.159Z, 9.1
2024-03-28T16:52:00.094Z, 9.1
2024-03-28T16:54:00.143Z, 9.3
2024-03-28T16:56:00.107Z, 9.4
2024-03-28T16:58:00.102Z, 9.2
2024-03-28T17:00:00.184Z, 9.3
2024-03-28T17:02:00.104Z, 9.5
2024-03-28T17:04:00.103Z, 9.4
2024-03-28T17:06:00.131Z, 9.4
2024-03-28T17:08:00.100Z, 9.6
2024-03-28T17:10:00.195Z, 9.7
2024-03-28T17:12:00.124Z, 9.8
2024-03-28T17:14:00.149Z, 9.7
2024-03-28T17:16:00.111Z, 9.9
2024-03-28T17:18:00.122Z, 9.8
2024-03-28T17:20:00.193Z, 9.9
2024-03-28T17:22:00.114Z, 9.9
2024-03-28T17:24:00.121Z, 9.9
2024-03-28T17:26:00.136Z, 9.7
2024-03-28T17:28:00.119Z, 9.4
2024-03-28T17:30:00.216Z, 9.7
2024-03-28T17:32:00.169Z, 10
2024-03-28T17:34:00.097Z, 10.2
2024-03-28T17:36:00.134Z, 10.4
2024-03-28T17:38:00.115Z, 10.3
2024-03-28T17:40:00.145Z, 10.5
2024-03-28T17:42:00.125Z, 10.5
2024-03-28T17:44:00.108Z, 10.2
2024-03-28T17:46:00.100Z, 9.9
2024-03-28T17:48:00.189Z, 9.8
2024-03-28T17:50:00.216Z, 9.5
2024-03-28T17:52:00.496Z, 9.4
2024-03-28T17:54:01.605Z, 9.4
2024-03-28T17:56:00.109Z, 9.2
2024-03-28T17:58:00.120Z, 9.2
2024-03-28T18:00:00.185Z, 9.1
2024-03-28T18:02:00.175Z, 9.2
2024-03-28T18:04:00.102Z, 9.1
2024-03-28T18:06:00.130Z, 9.1
2024-03-28T18:08:00.098Z, 9.1
2024-03-28T18:10:00.181Z, 9.1
2024-03-28T18:12:00.173Z, 9.1
2024-03-28T18:14:00.160Z, 9.1
2024-03-28T18:16:00.105Z, 9
2024-03-28T18:18:00.128Z, 8.9
2024-03-28T18:20:00.136Z, 8.7
2024-03-28T18:22:00.552Z, 8.7
2024-03-28T18:24:00.163Z, 8.8
2024-03-28T18:26:00.113Z, 8.7
2024-03-28T18:28:00.138Z, 8.6
2024-03-28T18:30:00.176Z, 8.6
2024-03-28T18:32:00.094Z, 8.6
2024-03-28T18:34:00.114Z, 8.6
2024-03-28T18:36:00.116Z, 8.5
2024-03-28T18:38:00.102Z, 8.5
2024-03-28T18:40:00.141Z, 8.4
2024-03-28T18:42:00.118Z, 8.5
2024-03-28T18:44:00.136Z, 8.5
2024-03-28T18:46:00.114Z, 8.5
2024-03-28T18:48:00.128Z, 8.6
2024-03-28T18:50:00.163Z, 8.6
2024-03-28T18:52:00.143Z, 8.7
2024-03-28T18:54:00.133Z, 8.8
2024-03-28T18:56:00.156Z, 8.8
2024-03-28T18:58:00.096Z, 8.7
2024-03-28T19:00:00.140Z, 8.5
2024-03-28T19:02:00.116Z, 8.6
2024-03-28T19:04:00.097Z, 8.4
2024-03-28T19:06:00.131Z, 8.5
2024-03-28T19:08:00.099Z, 8.5
2024-03-28T19:10:00.189Z, 8.4
2024-03-28T19:12:00.126Z, 8.3
2024-03-28T19:14:00.103Z, 8.1
2024-03-28T19:16:00.119Z, 8.2
2024-03-28T19:18:00.127Z, 8
2024-03-28T19:20:00.154Z, 8
2024-03-28T19:22:00.111Z, 8.1
2024-03-28T19:24:00.131Z, 8.1
2024-03-28T19:26:00.095Z, 8.1
2024-03-28T19:28:00.131Z, 8.1
2024-03-28T19:30:04.818Z, 8.1
2024-03-28T19:32:00.239Z, 8
2024-03-28T19:34:00.123Z, 7.9
2024-03-28T19:36:00.102Z, 8
2024-03-28T19:38:00.098Z, 7.9
2024-03-28T19:40:00.175Z, 8
2024-03-28T19:42:00.121Z, 8
2024-03-28T19:44:00.149Z, 8
2024-03-28T19:46:00.101Z, 8.1
2024-03-28T19:48:00.118Z, 8
2024-03-28T19:50:00.197Z, 8
2024-03-28T19:52:00.108Z, 8.1
2024-03-28T19:54:00.177Z, 8
2024-03-28T19:56:00.159Z, 8.1
2024-03-28T19:58:00.113Z, 7.9
2024-03-28T20:00:00.174Z, 7.9
2024-03-28T20:02:00.127Z, 7.9
2024-03-28T20:04:00.120Z, 8
2024-03-28T20:06:00.126Z, 7.9
2024-03-28T20:08:00.117Z, 7.9
2024-03-28T20:10:00.159Z, 7.8
2024-03-28T20:12:00.144Z, 7.9
2024-03-28T20:14:01.214Z, 7.9
2024-03-28T20:16:00.109Z, 7.8
2024-03-28T20:18:00.124Z, 7.8
2024-03-28T20:20:00.184Z, 7.7
2024-03-28T20:22:00.148Z, 7.7
2024-03-28T20:24:00.141Z, 7.7
2024-03-28T20:26:00.101Z, 7.7
2024-03-28T20:28:00.099Z, 7.8
2024-03-28T20:30:00.211Z, 7.8
2024-03-28T20:32:01.753Z, 7.9
2024-03-28T20:34:00.104Z, 7.8
2024-03-28T20:36:00.124Z, 7.8
2024-03-28T20:38:00.114Z, 7.7
2024-03-28T20:40:00.164Z, 7.7
2024-03-28T20:42:00.122Z, 7.7
2024-03-28T20:44:00.113Z, 7.9
2024-03-28T20:46:00.121Z, 7.8
2024-03-28T20:48:00.119Z, 7.9
2024-03-28T20:50:00.172Z, 7.8
2024-03-28T20:52:00.107Z, 8.1
2024-03-28T20:54:00.166Z, 8
2024-03-28T20:56:00.111Z, 7.9
2024-03-28T20:58:00.116Z, 8
2024-03-28T21:00:00.167Z, 8
2024-03-28T21:02:00.117Z, 8.1
2024-03-28T21:04:00.110Z, 8
2024-03-28T21:06:00.135Z, 8.1
2024-03-28T21:08:00.114Z, 8.2
2024-03-28T21:10:00.153Z, 7.9
2024-03-28T21:12:00.136Z, 7.8
2024-03-28T21:14:00.668Z, 7.8
2024-03-28T21:16:00.108Z, 7.8
2024-03-28T21:18:00.157Z, 7.8
2024-03-28T21:20:00.131Z, 7.7
2024-03-28T21:22:00.105Z, 7.6
2024-03-28T21:24:00.134Z, 7.6
2024-03-28T21:26:00.115Z, 7.7
2024-03-28T21:28:00.112Z, 7.9
2024-03-28T21:30:00.165Z, 7.8
2024-03-28T21:32:00.102Z, 7.7
2024-03-28T21:34:00.128Z, 7.7
2024-03-28T21:36:00.125Z, 7.8
2024-03-28T21:38:00.111Z, 7.7
2024-03-28T21:40:00.149Z, 7.7
2024-03-28T21:42:00.145Z, 7.7
2024-03-28T21:44:00.110Z, 7.7
2024-03-28T21:46:00.109Z, 7.5
2024-03-28T21:48:00.157Z, 7.6
2024-03-28T21:50:00.184Z, 7.6
2024-03-28T21:52:00.100Z, 7.6
2024-03-28T21:54:00.123Z, 7.7
2024-03-28T21:56:00.102Z, 7.7
2024-03-28T21:58:00.102Z, 7.7
2024-03-28T22:00:00.129Z, 7.8
2024-03-28T22:02:00.101Z, 7.7
2024-03-28T22:04:00.142Z, 7.7
2024-03-28T22:06:00.127Z, 7.7
2024-03-28T22:08:00.120Z, 7.6
2024-03-28T22:10:00.424Z, 7.4
2024-03-28T22:12:00.135Z, 7.3
2024-03-28T22:14:00.141Z, 7.5
2024-03-28T22:16:00.108Z, 7.6
2024-03-28T22:18:00.123Z, 7.5
2024-03-28T22:20:00.184Z, 7.6
2024-03-28T22:22:00.098Z, 7.4
2024-03-28T22:24:00.136Z, 7.3
2024-03-28T22:26:00.155Z, 7.1
2024-03-28T22:28:00.101Z, 7.3
2024-03-28T22:30:00.171Z, 7.3
2024-03-28T22:32:00.155Z, 7.3
2024-03-28T22:34:00.110Z, 7.4
2024-03-28T22:36:00.119Z, 7.3
2024-03-28T22:38:00.102Z, 7.3
2024-03-28T22:40:00.157Z, 7.3
2024-03-28T22:42:00.176Z, 7.3
2024-03-28T22:44:00.128Z, 7.4
2024-03-28T22:46:00.129Z, 7.4
2024-03-28T22:48:00.143Z, 7.5
2024-03-28T22:50:00.201Z, 7.5
2024-03-28T22:52:00.117Z, 7.6
2024-03-28T22:54:00.125Z, 7.5
2024-03-28T22:56:00.188Z, 7.5
2024-03-28T22:58:00.116Z, 7.5
2024-03-28T23:00:00.137Z, 7.5
2024-03-28T23:02:00.122Z, 7.6
2024-03-28T23:04:00.116Z, 7.7
2024-03-28T23:06:00.223Z, 7.7
2024-03-28T23:08:00.133Z, 7.7
2024-03-28T23:10:00.175Z, 7.6
2024-03-28T23:12:00.163Z, 7.6
2024-03-28T23:14:00.138Z, 7.7
2024-03-28T23:16:00.109Z, 7.8
2024-03-28T23:18:00.113Z, 7.6
2024-03-28T23:20:00.197Z, 7.6
2024-03-28T23:22:00.110Z, 7.6
2024-03-28T23:24:00.132Z, 7.6
2024-03-28T23:26:00.160Z, 7.6
2024-03-28T23:28:00.114Z, 7.6
2024-03-28T23:30:00.170Z, 7.5
2024-03-28T23:32:00.135Z, 7.5
2024-03-28T23:34:00.122Z, 7.5
2024-03-28T23:36:00.122Z, 7.5
2024-03-28T23:38:00.134Z, 7.4
2024-03-28T23:40:00.173Z, 7.5
2024-03-28T23:42:00.124Z, 7.5
2024-03-28T23:44:00.146Z, 7.4
2024-03-28T23:46:00.099Z, 7.4
2024-03-28T23:48:00.124Z, 7.4
2024-03-28T23:50:00.327Z, 7.4
2024-03-28T23:52:00.101Z, 7.3
2024-03-28T23:54:00.123Z, 7.3
2024-03-28T23:56:00.155Z, 7.4
2024-03-28T23:58:00.099Z, 7.6
